Time;durP1;ratioP1;P1;durP2;ratioP2;P2;SDS_P1;SDS_P2;PMS_P1;PMS_P2;Temp;Humidity;BMP_temperature;BMP_pressure;BME280_temperature;BME280_humidity;BME280_pressure;Samples;Min_cycle;Max_cycle;Signal;HPM_P1;HPM_P2
2022/07/06 00:00:25;;;;;;;10.45;6.47;;;;;;;22.61;100.00;99811.65;1664166;85;21074;-82
2022/07/06 00:02:52;;;;;;;12.55;6.95;;;;;;;22.55;100.00;99806.59;1665270;85;21310;-80
2022/07/06 00:05:19;;;;;;;12.70;7.00;;;;;;;22.51;100.00;99805.45;1665018;86;21051;-83
2022/07/06 00:07:47;;;;;;;13.03;6.75;;;;;;;22.48;100.00;99806.50;1663438;85;21002;-82
2022/07/06 00:10:14;;;;;;;12.30;7.10;;;;;;;22.44;100.00;99801.22;1663479;86;21026;-82
2022/07/06 00:12:41;;;;;;;15.75;7.20;;;;;;;22.39;100.00;99806.11;1663407;86;21053;-81
2022/07/06 00:15:09;;;;;;;12.23;6.80;;;;;;;22.36;100.00;99806.09;1663450;86;20987;-82
2022/07/06 00:17:35;;;;;;;12.03;6.72;;;;;;;22.33;100.00;99806.59;1663519;86;21034;-82
2022/07/06 00:20:03;;;;;;;14.25;7.10;;;;;;;22.32;100.00;99798.03;1663674;85;21070;-82
2022/07/06 00:22:30;;;;;;;11.60;7.03;;;;;;;22.31;100.00;99801.03;1663030;86;21077;-81
2022/07/06 00:24:59;;;;;;;12.70;7.22;;;;;;;22.28;100.00;99798.81;1663493;86;21039;-82
2022/07/06 00:27:26;;;;;;;9.65;6.55;;;;;;;22.24;100.00;99797.08;1663513;86;21532;-82
2022/07/06 00:29:53;;;;;;;10.48;6.97;;;;;;;22.21;100.00;99792.06;1663607;86;21555;-81
2022/07/06 00:32:19;;;;;;;11.50;7.12;;;;;;;22.15;100.00;99798.05;1663623;86;21006;-82
2022/07/06 00:34:46;;;;;;;12.35;7.20;;;;;;;22.10;100.00;99785.59;1663515;86;21034;-82
2022/07/06 00:37:15;;;;;;;12.20;6.92;;;;;;;22.06;100.00;99787.19;1663499;85;21011;-82
2022/07/06 00:39:42;;;;;;;12.45;7.12;;;;;;;22.05;100.00;99787.44;1663645;86;21113;-82
2022/07/06 00:42:09;;;;;;;12.60;7.12;;;;;;;22.02;100.00;99784.62;1663467;86;21037;-81
2022/07/06 00:44:37;;;;;;;12.20;7.08;;;;;;;22.00;100.00;99781.30;1663377;85;21069;-82
2022/07/06 00:47:05;;;;;;;10.65;7.03;;;;;;;21.97;100.00;99787.30;1663469;86;20967;-84
2022/07/06 00:52:18;;;;;;;12.88;7.08;;;;;;;21.90;100.00;99777.88;1655569;86;20970;-82
2022/07/06 00:54:45;;;;;;;9.65;6.75;;;;;;;21.90;100.00;99775.64;1663540;86;21024;-82
2022/07/06 00:57:13;;;;;;;13.20;7.20;;;;;;;21.91;100.00;99778.14;1663613;86;20975;-82
2022/07/06 00:59:40;;;;;;;10.70;7.42;;;;;;;21.96;100.00;99785.11;1663606;86;21500;-82
2022/07/06 01:02:07;;;;;;;13.70;7.05;;;;;;;22.00;100.00;99783.50;1691691;84;21046;-82
2022/07/06 01:04:34;;;;;;;13.28;7.53;;;;;;;22.06;100.00;99789.09;1665844;86;21042;-82
2022/07/06 01:07:03;;;;;;;14.78;7.97;;;;;;;22.11;100.00;99791.91;1665281;85;21042;-82
2022/07/06 01:09:31;;;;;;;12.65;7.87;;;;;;;22.15;100.00;99781.53;1665379;86;21042;-80
2022/07/06 01:11:59;;;;;;;13.10;8.40;;;;;;;22.18;100.00;99778.80;1654177;86;21034;-82
2022/07/06 01:14:26;;;;;;;14.87;8.70;;;;;;;22.18;100.00;99776.87;1654095;86;21517;-82
2022/07/06 01:16:54;;;;;;;14.15;7.90;;;;;;;22.18;100.00;99783.75;1665250;85;21042;-83
2022/07/06 01:19:23;;;;;;;15.48;9.13;;;;;;;22.18;100.00;99784.31;1665289;86;21117;-82
2022/07/06 01:21:50;;;;;;;14.07;8.28;;;;;;;22.18;100.00;99788.44;1654103;86;21561;-82
2022/07/06 01:24:17;;;;;;;11.88;8.18;;;;;;;22.16;100.00;99787.31;1665238;86;21548;-83
2022/07/06 01:26:44;;;;;;;13.35;8.40;;;;;;;22.16;100.00;99782.36;1653754;86;21060;-82
2022/07/06 01:29:11;;;;;;;15.70;8.73;;;;;;;22.13;100.00;99776.83;1665296;85;21026;-81
2022/07/06 01:31:48;;;;;;;11.95;8.25;;;;;;;22.13;100.00;99785.61;1665564;86;21508;-82
2022/07/06 01:34:19;;;;;;;13.38;8.75;;;;;;;22.10;100.00;99790.27;1665982;86;21014;-82
2022/07/06 01:36:48;;;;;;;;;;;;;;;22.08;100.00;99788.28;1665469;86;21113;-81
2022/07/06 01:39:15;;;;;;;15.00;9.00;;;;;;;22.10;100.00;99799.35;1665738;86;20113;-82
2022/07/06 01:41:41;;;;;;;19.77;9.15;;;;;;;22.11;100.00;99789.16;1665658;86;21004;-81
2022/07/06 01:44:09;;;;;;;18.00;8.90;;;;;;;22.13;100.00;99791.97;1665361;86;21067;-81
2022/07/06 01:46:37;;;;;;;15.10;8.58;;;;;;;22.16;100.00;99797.50;1665750;86;21490;-82
2022/07/06 01:49:06;;;;;;;15.15;8.83;;;;;;;22.21;100.00;99795.37;1665623;86;21550;-82
2022/07/06 01:51:33;;;;;;;15.03;9.00;;;;;;;22.22;100.00;99795.09;1665650;86;21029;-81
2022/07/06 01:54:01;;;;;;;14.38;8.83;;;;;;;22.23;100.00;99800.91;1665739;86;21024;-81
2022/07/06 01:56:29;;;;;;;14.65;8.58;;;;;;;22.22;100.00;99795.09;1665546;86;21554;-81
2022/07/06 01:58:57;;;;;;;13.58;8.55;;;;;;;22.21;100.00;99794.00;1662029;86;21036;-81
2022/07/06 02:01:25;;;;;;;19.48;9.03;;;;;;;22.19;100.00;99790.94;1665473;85;21049;-81
2022/07/06 02:03:52;;;;;;;14.80;8.88;;;;;;;22.19;100.00;99793.69;1665695;86;21379;-82
2022/07/06 02:06:20;;;;;;;15.53;9.20;;;;;;;22.21;100.00;99792.06;1665483;86;21084;-81
2022/07/06 02:08:51;;;;;;;16.32;8.95;;;;;;;22.22;100.00;99794.27;1665396;86;21052;-82
2022/07/06 02:11:18;;;;;;;17.10;8.90;;;;;;;22.25;100.00;99789.09;1665589;86;21025;-82
2022/07/06 02:13:46;;;;;;;19.57;8.90;;;;;;;22.27;100.00;99798.51;1643408;86;21013;-82
2022/07/06 02:16:13;;;;;;;14.83;8.80;;;;;;;22.24;100.00;99798.45;1665586;86;21036;-82
2022/07/06 02:18:41;;;;;;;17.30;9.48;;;;;;;22.23;100.00;99802.83;1665692;86;20993;-82
2022/07/06 02:21:08;;;;;;;17.12;9.20;;;;;;;22.19;100.00;99795.63;1665320;86;21040;-83
2022/07/06 02:23:35;;;;;;;16.52;9.90;;;;;;;22.15;100.00;99790.31;1665540;86;21068;-82
2022/07/06 02:26:03;;;;;;;15.48;9.55;;;;;;;22.12;100.00;99790.84;1665648;86;21048;-82
2022/07/06 02:28:31;;;;;;;15.58;9.43;;;;;;;22.14;100.00;99788.11;1642051;86;21052;-83
2022/07/06 02:30:58;;;;;;;17.15;10.18;;;;;;;22.22;100.00;99797.02;1665526;86;21020;-82
2022/07/06 02:33:27;;;;;;;16.70;9.93;;;;;;;22.27;100.00;99793.00;1665545;86;21024;-82
2022/07/06 02:35:54;;;;;;;20.02;10.18;;;;;;;22.32;100.00;99791.14;1665586;86;21048;-82
2022/07/06 02:38:21;;;;;;;19.73;10.28;;;;;;;22.40;100.00;99789.89;1665666;86;21032;-82
2022/07/06 02:40:48;;;;;;;18.35;10.00;;;;;;;22.47;100.00;99784.16;1694737;84;21021;-82
2022/07/06 02:43:15;;;;;;;16.45;9.50;;;;;;;22.51;100.00;99790.30;1661030;86;20995;-82
2022/07/06 02:45:43;;;;;;;16.20;9.40;;;;;;;22.56;100.00;99795.05;1660960;86;21075;-82
2022/07/06 02:48:11;;;;;;;17.73;9.63;;;;;;;22.61;100.00;99792.36;1661091;86;21034;-82
2022/07/06 02:50:38;;;;;;;15.68;9.45;;;;;;;22.64;100.00;99793.75;1661051;86;21562;-81
2022/07/06 02:53:05;;;;;;;15.68;9.25;;;;;;;22.66;100.00;99796.53;1661102;85;21051;-82
2022/07/06 02:55:32;;;;;;;18.57;10.43;;;;;;;22.69;100.00;99796.02;1661144;86;21038;-82
2022/07/06 02:57:59;;;;;;;17.00;10.10;;;;;;;22.70;100.00;99799.60;1661046;86;20990;-83
2022/07/06 03:00:27;;;;;;;15.85;9.40;;;;;;;22.72;100.00;99803.78;1661192;86;21043;-81
2022/07/06 03:02:54;;;;;;;19.37;10.35;;;;;;;22.76;100.00;99809.61;1665127;86;21061;-82
2022/07/06 03:05:21;;;;;;;17.90;9.88;;;;;;;22.79;100.00;99804.12;1665421;85;21118;-84
2022/07/06 03:07:48;;;;;;;20.65;10.43;;;;;;;22.82;100.00;99805.81;1665317;86;21038;-83
2022/07/06 03:10:15;;;;;;;17.90;10.05;;;;;;;22.84;100.00;99804.18;1653932;86;20998;-81
2022/07/06 03:12:43;;;;;;;18.87;10.13;;;;;;;22.83;100.00;99799.22;1665269;86;21496;-83
2022/07/06 03:15:12;;;;;;;16.42;10.03;;;;;;;22.83;100.00;99798.40;1665294;85;21038;-83
2022/07/06 03:17:40;;;;;;;16.85;9.38;;;;;;;22.82;100.00;99799.47;1665469;86;20998;-83
2022/07/06 03:20:08;;;;;;;18.35;10.10;;;;;;;22.83;100.00;99798.40;1665530;86;21050;-83
2022/07/06 03:22:35;;;;;;;19.30;10.18;;;;;;;22.84;100.00;99788.50;1665494;85;21018;-84
2022/07/06 03:25:04;;;;;;;19.80;10.35;;;;;;;22.87;100.00;99791.27;1653995;86;21074;-83
2022/07/06 03:27:33;;;;;;;19.65;11.38;;;;;;;22.87;100.00;99798.98;1665645;85;21058;-82
2022/07/06 03:30:01;;;;;;;19.50;10.58;;;;;;;22.90;100.00;99790.76;1666138;86;21078;-82
2022/07/06 03:32:29;;;;;;;21.12;11.33;;;;;;;22.93;100.00;99793.83;1667675;86;21085;-82
2022/07/06 03:34:56;;;;;;;18.50;10.93;;;;;;;22.95;100.00;99783.92;1667503;83;21050;-82
2022/07/06 03:37:23;;;;;;;18.12;10.68;;;;;;;23.00;100.00;99777.61;1667607;84;21082;-82
2022/07/06 03:39:51;;;;;;;24.90;11.50;;;;;;;23.07;100.00;99780.50;1665391;86;21088;-83
2022/07/06 03:42:18;;;;;;;18.30;10.82;;;;;;;23.15;100.00;99776.98;1665630;85;21077;-83
2022/07/06 03:44:45;;;;;;;18.85;10.50;;;;;;;23.23;100.00;99780.63;1664957;85;21011;-76
2022/07/06 03:47:12;;;;;;;17.35;10.43;;;;;;;23.31;100.00;99782.93;1664740;85;21046;-77
2022/07/06 03:49:39;;;;;;;17.20;10.10;;;;;;;23.38;100.00;99781.34;1664655;85;21058;-75
2022/07/06 03:52:06;;;;;;;18.98;10.25;;;;;;;23.43;100.00;99789.11;1664875;86;21066;-75
2022/07/06 03:54:35;;;;;;;21.23;12.28;;;;;;;23.49;100.00;99791.36;1662927;86;21043;-76
2022/07/06 03:57:05;;;;;;;23.73;13.78;;;;;;;23.56;100.00;99789.77;1664638;85;21050;-75
2022/07/06 03:59:33;;;;;;;24.20;13.55;;;;;;;23.62;100.00;99792.31;1664581;86;21121;-76
2022/07/06 04:02:00;;;;;;;23.25;12.25;;;;;;;23.70;100.00;99793.19;1664681;84;21026;-76
2022/07/06 04:04:26;;;;;;;21.60;13.15;;;;;;;23.78;100.00;99795.17;1664505;85;21544;-75
2022/07/06 04:06:53;;;;;;;22.50;13.22;;;;;;;23.83;100.00;99791.95;1664811;85;21053;-76
2022/07/06 04:09:23;;;;;;;22.73;13.20;;;;;;;23.90;100.00;99791.70;1664555;85;21529;-75
2022/07/06 04:11:50;;;;;;;22.48;12.90;;;;;;;23.98;100.00;99784.32;1664734;85;21034;-76
2022/07/06 04:14:17;;;;;;;21.00;12.15;;;;;;;24.05;100.00;99791.81;1664899;85;21022;-75
2022/07/06 04:16:46;;;;;;;24.80;13.08;;;;;;;24.13;100.00;99790.48;1664557;86;21050;-77
2022/07/06 04:19:13;;;;;;;20.45;12.95;;;;;;;24.25;100.00;99790.28;1664709;86;21030;-75
2022/07/06 04:21:40;;;;;;;26.20;12.37;;;;;;;24.37;100.00;99790.07;1664492;85;20979;-76
2022/07/06 04:24:08;;;;;;;22.85;12.88;;;;;;;24.49;100.00;99792.59;1664357;86;21054;-75
2022/07/06 04:26:35;;;;;;;23.25;12.20;;;;;;;24.62;100.00;99790.20;1664519;85;21054;-77
2022/07/06 04:29:03;;;;;;;23.12;12.80;;;;;;;24.80;100.00;99782.53;1664527;86;21140;-78
2022/07/06 04:31:30;;;;;;;21.40;12.55;;;;;;;24.99;100.00;99785.08;1664568;86;21014;-75
2022/07/06 04:33:57;;;;;;;23.10;12.15;;;;;;;25.19;100.00;99791.19;1664859;85;21038;-76
2022/07/06 04:36:26;;;;;;;21.52;11.97;;;;;;;25.40;100.00;99784.34;1664668;85;21109;-76
2022/07/06 04:38:55;;;;;;;23.05;11.93;;;;;;;25.63;100.00;99779.37;1664447;85;21038;-76
2022/07/06 04:41:22;;;;;;;19.52;11.57;;;;;;;25.84;100.00;99785.16;1664818;85;21030;-77
2022/07/06 04:43:51;;;;;;;19.85;11.90;;;;;;;26.03;100.00;99789.61;1664424;86;21050;-75
2022/07/06 04:46:19;;;;;;;20.97;11.90;;;;;;;26.21;100.00;99788.73;1664729;85;21002;-77
2022/07/06 04:48:46;;;;;;;24.07;12.85;;;;;;;26.36;100.00;99788.67;1664672;86;21006;-76
2022/07/06 04:51:15;;;;;;;22.90;13.15;;;;;;;26.55;100.00;99788.89;1662874;86;21003;-76
2022/07/06 04:53:42;;;;;;;21.73;12.55;;;;;;;26.73;100.00;99792.17;1664613;85;21037;-76
2022/07/06 04:56:10;;;;;;;24.45;13.30;;;;;;;26.89;100.00;99790.41;1663999;86;21662;-74
2022/07/06 04:58:38;;;;;;;24.55;13.38;;;;;;;27.08;100.00;99800.30;1652499;86;21002;-73
2022/07/06 05:01:06;;;;;;;25.72;15.03;;;;;;;27.27;100.00;99801.88;1625085;87;21504;-73
2022/07/06 05:06:05;;;;;;;25.97;17.75;;;;;;;27.71;100.00;99800.70;1551157;92;21182;-73
2022/07/06 05:08:32;;;;;;;58.00;46.73;;;;;;;27.94;100.00;99804.69;1533328;93;21189;-71
2022/07/06 05:11:00;;;;;;;140.62;124.12;;;;;;;28.17;100.00;99801.68;1564968;90;21086;-74
2022/07/06 05:13:28;;;;;;;132.05;119.35;;;;;;;28.40;100.00;99799.49;1569489;90;21089;-74
2022/07/06 05:15:57;;;;;;;86.97;77.92;;;;;;;28.69;100.00;99802.78;1584898;89;21052;-72
2022/07/06 05:18:25;;;;;;;46.65;41.63;;;;;;;28.97;100.00;99808.55;1557854;92;21006;-76
2022/07/06 05:20:53;;;;;;;21.55;14.10;;;;;;;29.24;100.00;99808.48;1585222;90;21616;-79
2022/07/06 05:23:20;;;;;;;16.97;8.85;;;;;;;29.48;100.00;99818.96;1579731;91;21103;-77
2022/07/06 05:25:47;;;;;;;14.87;8.18;;;;;;;29.63;100.00;99826.80;1561396;92;21054;-78
2022/07/06 05:28:14;;;;;;;14.65;8.33;;;;;;;29.75;100.00;99824.92;1588418;90;21090;-76
2022/07/06 05:30:41;;;;;;;21.23;13.95;;;;;;;29.86;100.00;99827.27;1588464;90;21074;-78
2022/07/06 05:33:08;;;;;;;23.87;16.23;;;;;;;29.97;100.00;99826.52;1588256;90;20994;-76
2022/07/06 05:35:37;;;;;;;25.02;20.50;;;;;;;30.10;100.00;99824.34;1560177;92;21073;-75
2022/07/06 05:38:05;;;;;;;17.65;10.60;;;;;;;30.30;100.00;99829.27;1587721;90;21613;-75
2022/07/06 05:40:33;;;;;;;16.87;9.23;;;;;;;30.50;100.00;99835.63;1589725;90;21054;-78
2022/07/06 05:43:00;;;;;;;15.38;8.78;;;;;;;30.56;100.00;99832.98;1567117;90;21078;-76
2022/07/06 05:45:27;;;;;;;11.88;7.60;;;;;;;30.63;100.00;99829.20;1561165;92;21006;-75
2022/07/06 05:50:41;;;;;;;14.80;7.75;;;;;;;30.82;100.00;99827.70;1587250;90;21178;-79
2022/07/06 05:53:08;;;;;;;17.48;8.80;;;;;;;30.97;100.00;99829.35;1590830;89;20982;-75
2022/07/06 05:55:36;;;;;;;15.28;8.50;;;;;;;31.11;100.00;99829.33;1599066;89;21147;-78
2022/07/06 05:58:03;;;;;;;12.98;7.25;;;;;;;31.22;100.00;99834.37;1584445;89;21073;-78
2022/07/06 06:00:31;;;;;;;11.93;6.65;;;;;;;31.36;100.00;99830.16;1580010;91;21075;-76
2022/07/06 06:03:01;;;;;;;16.85;7.37;;;;;;;31.52;100.00;99831.20;1581224;91;21053;-80
2022/07/06 06:05:28;;;;;;;13.08;7.30;;;;;;;31.74;100.00;99831.20;1620193;87;21046;-82
2022/07/06 06:07:57;;;;;;;540.15;386.35;;;;;;;32.04;100.00;99824.61;1608787;88;21078;-78
2022/07/06 06:10:25;;;;;;;48.78;38.00;;;;;;;32.33;100.00;99824.66;1608860;88;21070;-82
2022/07/06 06:12:54;;;;;;;19.77;12.93;;;;;;;32.59;100.00;99824.80;1624969;87;21041;-81
2022/07/06 06:15:23;;;;;;;15.78;7.72;;;;;;;32.82;100.00;99824.13;1674079;86;21073;-82
2022/07/06 06:17:51;;;;;;;13.90;7.50;;;;;;;33.04;97.39;99818.16;1673800;85;21113;-79
2022/07/06 06:20:17;;;;;;;15.05;7.58;;;;;;;33.25;97.47;99822.02;1673071;86;21018;-80
2022/07/06 06:22:52;;;;;;;11.80;7.30;;;;;;;33.35;94.12;99822.25;1673971;85;21061;-77
2022/07/06 06:25:21;;;;;;;15.55;8.05;;;;;;;33.43;94.29;99824.80;1664283;85;21526;-77
2022/07/06 06:27:49;;;;;;;13.13;7.92;;;;;;;33.54;96.43;99825.29;1633753;88;21037;-79
2022/07/06 06:30:15;;;;;;;16.35;8.53;;;;;;;33.63;96.58;99824.73;1634205;88;21068;-77
2022/07/06 06:32:42;;;;;;;17.98;8.78;;;;;;;33.69;100.00;99825.41;1633983;88;21100;-77
2022/07/06 06:35:09;;;;;;;15.00;8.03;;;;;;;33.84;100.00;99821.51;1633704;88;21084;-76
2022/07/06 06:37:36;;;;;;;13.65;7.80;;;;;;;33.96;95.71;99825.59;1633867;88;21017;-77
2022/07/06 06:40:04;;;;;;;12.23;7.92;;;;;;;33.99;100.00;99818.73;1633533;88;21112;-77
2022/07/06 06:42:32;;;;;;;14.90;8.15;;;;;;;34.15;98.63;99819.02;1633627;88;21053;-76
2022/07/06 06:44:59;;;;;;;11.83;6.58;;;;;;;34.36;98.84;99821.14;1633978;88;21006;-74
2022/07/06 06:47:26;;;;;;;18.60;7.15;;;;;;;34.56;94.12;99813.94;1633348;88;21053;-76
2022/07/06 06:49:53;;;;;;;11.03;6.10;;;;;;;34.77;86.67;99815.42;1633563;88;21061;-77
2022/07/06 06:52:20;;;;;;;14.43;6.45;;;;;;;34.95;79.32;99818.38;1633854;88;21104;-76
2022/07/06 06:54:47;;;;;;;17.75;9.70;;;;;;;35.09;73.58;99821.50;1632971;88;21025;-75
2022/07/06 06:57:14;;;;;;;11.25;7.05;;;;;;;35.18;71.47;99816.06;1634622;88;21052;-77
2022/07/06 06:59:42;;;;;;;10.25;6.47;;;;;;;35.25;70.37;99814.72;1635520;88;21202;-78
2022/07/06 07:02:11;;;;;;;11.33;6.40;;;;;;;35.27;67.10;99815.19;1634557;86;21049;-81
2022/07/06 07:04:41;;;;;;;11.43;6.67;;;;;;;35.33;66.39;99811.02;1630075;88;21552;-73
2022/07/06 07:07:07;;;;;;;13.70;7.17;;;;;;;35.41;63.55;99815.73;1630094;88;21049;-74
2022/07/06 07:09:36;;;;;;;9.48;6.62;;;;;;;35.45;64.30;99814.45;1629740;88;21564;-73
2022/07/06 07:12:05;;;;;;;14.40;6.85;;;;;;;35.47;64.98;99809.34;1639671;86;21480;-75
2022/07/06 07:14:32;;;;;;;13.65;7.05;;;;;;;35.58;62.87;99804.92;1668392;85;21073;-76
2022/07/06 07:16:59;;;;;;;12.03;5.60;;;;;;;35.48;59.80;99808.97;1668401;86;21506;-73
2022/07/06 07:19:26;;;;;;;14.53;7.80;;;;;;;35.24;59.38;99801.25;1668085;85;21141;-75
2022/07/06 07:21:52;;;;;;;29.67;9.25;;;;;;;35.31;60.97;99807.73;1669037;86;21093;-75
2022/07/06 07:24:19;;;;;;;15.30;7.92;;;;;;;35.46;63.86;99804.88;1668858;86;21026;-74
2022/07/06 07:26:46;;;;;;;11.80;6.67;;;;;;;35.66;60.15;99806.00;1669266;86;21130;-72
2022/07/06 07:29:13;;;;;;;8.98;5.97;;;;;;;35.86;58.71;99806.58;1669432;86;21076;-74
2022/07/06 07:31:40;;;;;;;11.70;6.12;;;;;;;36.10;56.28;99802.98;1669294;86;21133;-80
2022/07/06 07:34:06;;;;;;;14.73;5.97;;;;;;;36.34;56.16;99794.97;1658450;85;21060;-79
2022/07/06 07:36:33;;;;;;;10.45;6.47;;;;;;;36.53;53.18;99795.78;1630359;88;21145;-79
2022/07/06 07:39:01;;;;;;;10.88;6.60;;;;;;;36.68;49.32;99795.11;1630209;88;21046;-77
2022/07/06 07:41:28;;;;;;;11.85;5.72;;;;;;;36.81;48.97;99797.31;1630152;88;21029;-76
2022/07/06 07:43:55;;;;;;;10.30;5.78;;;;;;;36.85;47.69;99792.64;1629801;88;21025;-78
2022/07/06 07:46:22;;;;;;;9.83;5.00;;;;;;;36.95;48.04;99799.77;1630315;88;21033;-82
2022/07/06 07:48:49;;;;;;;12.78;7.40;;;;;;;36.93;46.25;99800.11;1630960;88;21037;-83
2022/07/06 07:51:18;;;;;;;15.58;6.42;;;;;;;37.02;48.12;99799.39;1631308;88;21061;-76
2022/07/06 07:53:46;;;;;;;10.38;5.30;;;;;;;37.13;47.77;99797.48;1630164;88;21124;-77
2022/07/06 07:56:14;;;;;;;12.37;5.70;;;;;;;37.24;45.26;99795.86;1630081;88;21093;-84
2022/07/06 07:58:41;;;;;;;9.20;5.65;;;;;;;37.33;45.26;99795.13;1631105;88;21029;-79
2022/07/06 08:01:08;;;;;;;9.93;5.80;;;;;;;37.43;44.95;99793.78;1630136;86;21076;-83
2022/07/06 08:03:35;;;;;;;11.28;6.03;;;;;;;37.62;45.91;99798.16;1651628;86;21081;-82
2022/07/06 08:06:03;;;;;;;10.38;5.25;;;;;;;37.74;45.06;99798.72;1665031;86;21555;-85
2022/07/06 08:08:31;;;;;;;15.70;5.75;;;;;;;37.92;45.96;99796.39;1632188;88;21093;-79
2022/07/06 08:10:59;;;;;;;20.55;6.40;;;;;;;38.07;44.58;99800.42;1632067;88;21142;-79
2022/07/06 08:13:26;;;;;;;13.95;5.40;;;;;;;38.22;43.12;99804.46;1631810;88;21574;-81
2022/07/06 08:15:53;;;;;;;7.15;4.78;;;;;;;38.34;41.90;99803.56;1632002;87;21119;-80
2022/07/06 08:18:20;;;;;;;9.08;5.10;;;;;;;38.40;41.84;99799.86;1631778;88;21074;-82
2022/07/06 08:20:47;;;;;;;15.05;5.28;;;;;;;38.45;39.13;99799.59;1632605;87;21045;-81
2022/07/06 08:23:14;;;;;;;10.23;4.72;;;;;;;38.55;40.15;99804.09;1632387;88;21089;-82
2022/07/06 08:25:40;;;;;;;10.32;5.37;;;;;;;38.73;39.56;99802.31;1631927;87;21198;-81
2022/07/06 08:28:07;;;;;;;8.80;4.60;;;;;;;38.84;37.03;99801.16;1630728;88;21512;-82
2022/07/06 08:30:34;;;;;;;4.70;3.80;;;;;;;38.93;35.07;99803.17;1631267;88;21018;-81
2022/07/06 08:33:02;;;;;;;8.60;3.98;;;;;;;38.98;33.24;99802.08;1631430;88;21026;-85
2022/07/06 08:35:29;;;;;;;8.25;4.28;;;;;;;38.86;31.86;99798.17;1631381;88;22126;-80
2022/07/06 08:37:56;;;;;;;5.35;4.17;;;;;;;38.84;34.62;99799.73;1631247;88;21539;-81
2022/07/06 08:40:23;;;;;;;6.40;4.20;;;;;;;39.12;35.19;99796.77;1659259;86;21117;-81
2022/07/06 08:42:53;;;;;;;6.28;4.30;;;;;;;39.12;35.19;99796.77;1664870;86;21587;-80
2022/07/06 08:45:20;;;;;;;8.30;4.92;;;;;;;39.13;35.03;99794.75;1665024;85;21093;-79
2022/07/06 08:47:49;;;;;;;10.20;4.80;;;;;;;39.04;34.26;99796.38;1664983;86;21018;-77
2022/07/06 08:50:17;;;;;;;9.05;4.87;;;;;;;39.01;35.48;99799.33;1665385;85;21049;-80
2022/07/06 08:52:44;;;;;;;8.28;5.22;;;;;;;39.03;35.43;99800.41;1665539;85;21030;-79
2022/07/06 08:55:11;;;;;;;9.10;4.85;;;;;;;38.99;36.40;99788.96;1664974;86;21197;-80
2022/07/06 08:57:39;;;;;;;7.87;4.65;;;;;;;39.01;37.31;99792.27;1632425;86;21010;-80
2022/07/06 09:00:08;;;;;;;11.28;6.47;;;;;;;39.06;36.87;99789.18;1665056;85;21033;-79
2022/07/06 09:02:35;;;;;;;10.05;5.83;;;;;;;39.13;35.98;99788.49;1661273;86;21073;-81
2022/07/06 09:05:03;;;;;;;10.05;6.03;;;;;;;39.15;35.55;99794.59;1630717;88;21559;-74
2022/07/06 09:07:30;;;;;;;10.23;5.20;;;;;;;39.03;33.98;99796.98;1629607;88;21093;-77
2022/07/06 09:09:57;;;;;;;11.88;4.97;;;;;;;38.86;35.32;99779.80;1629854;88;21089;-80
2022/07/06 09:12:26;;;;;;;10.05;5.80;;;;;;;38.86;35.32;99779.80;1646430;86;21111;-77
2022/07/06 09:14:58;;;;;;;16.85;6.03;;;;;;;38.76;35.49;99787.43;1635680;86;21138;-76
2022/07/06 09:17:28;;;;;;;7.55;5.20;;;;;;;38.70;35.59;99784.08;1630418;88;21086;-77
2022/07/06 09:19:56;;;;;;;10.05;5.53;;;;;;;38.69;34.91;99789.52;1629754;87;21613;-77
2022/07/06 09:22:31;;;;;;;15.28;10.08;;;;;;;38.53;34.28;99778.79;1630674;87;21046;-74
2022/07/06 09:25:13;;;;;;;7.97;5.10;;;;;;;38.59;35.80;99775.15;1631574;87;21078;-75
2022/07/06 09:27:47;;;;;;;9.40;5.58;;;;;;;38.66;34.86;99769.06;1631027;88;20986;-75
2022/07/06 09:30:14;;;;;;;19.80;6.47;;;;;;;38.81;35.22;99766.56;1631242;88;21111;-76
2022/07/06 09:32:48;;;;;;;10.35;5.40;;;;;;;39.04;36.62;99773.16;1629386;87;21678;-76
2022/07/06 09:35:24;;;;;;;14.53;5.20;;;;;;;39.30;35.16;99774.53;1629139;88;21120;-77
2022/07/06 09:38:09;;;;;;;17.52;5.58;;;;;;;39.54;35.23;99775.42;1627609;88;21116;-74
2022/07/06 09:40:39;;;;;;;9.88;5.15;;;;;;;39.83;35.82;99779.64;1627997;88;21045;-76
2022/07/06 09:43:22;;;;;;;6.87;5.10;;;;;;;40.13;34.77;99774.14;1620558;88;21236;-74
2022/07/06 09:45:56;;;;;;;6.70;4.70;;;;;;;40.17;33.84;99775.61;1586384;90;21168;-75
2022/07/06 09:48:27;;;;;;;12.58;5.00;;;;;;;40.09;34.36;99770.44;1587074;89;21144;-72
2022/07/06 09:51:02;;;;;;;7.12;4.47;;;;;;;40.09;34.46;99766.77;1586883;90;21156;-76
2022/07/06 09:53:29;;;;;;;5.92;4.70;;;;;;;40.45;32.74;99771.66;1587453;89;21081;-75
2022/07/06 09:58:25;;;;;;;12.13;5.58;;;;;;;40.39;31.71;99758.39;1541241;92;21077;-73
2022/07/06 10:00:53;;;;;;;11.68;4.72;;;;;;;40.39;31.71;99758.39;1538004;93;21092;-75
2022/07/06 10:03:20;;;;;;;9.65;5.12;;;;;;;40.18;30.90;99763.08;1538312;93;21113;-75
2022/07/06 10:05:48;;;;;;;10.95;5.12;;;;;;;40.14;32.27;99757.35;1538429;93;21060;-74
2022/07/06 10:08:16;;;;;;;20.52;5.83;;;;;;;40.36;32.43;99759.18;1538575;93;21804;-76
2022/07/06 10:10:44;;;;;;;8.25;4.60;;;;;;;40.48;31.71;99760.38;1538368;93;21155;-76
2022/07/06 10:13:12;;;;;;;7.87;5.12;;;;;;;40.50;31.37;99761.39;1537906;93;21068;-75
2022/07/06 10:15:41;;;;;;;12.60;4.80;;;;;;;40.51;31.33;99755.95;1538619;93;21554;-74
2022/07/06 10:18:10;;;;;;;12.53;5.22;;;;;;;40.47;30.67;99757.93;1538738;93;21567;-75
2022/07/06 10:20:38;;;;;;;13.10;5.37;;;;;;;40.47;31.82;99755.91;1538311;92;21080;-74
2022/07/06 10:23:08;;;;;;;10.48;4.95;;;;;;;40.61;31.52;99744.78;1537676;93;21539;-75
2022/07/06 10:25:37;;;;;;;9.45;5.08;;;;;;;40.67;30.54;99749.52;1537725;92;21188;-76
2022/07/06 10:28:13;;;;;;;18.20;5.17;;;;;;;40.75;31.81;99739.12;1537898;93;21172;-77
2022/07/06 10:30:34;;;;;;;10.80;4.65;;;;;;;40.91;31.39;99740.38;1538035;93;21103;-75
2022/07/06 10:33:01;;;;;;;7.60;4.72;;;;;;;41.04;30.11;99738.11;1538676;93;21085;-75
2022/07/06 10:35:28;;;;;;;9.25;5.00;;;;;;;41.07;30.49;99745.25;1519962;93;21620;-76
2022/07/06 10:38:08;;;;;;;12.23;4.65;;;;;;;41.10;30.89;99736.56;1546365;93;21067;-75
2022/07/06 10:43:34;;;;;;;17.30;5.05;;;;;;;41.11;30.66;99736.17;1541294;93;21277;-77
2022/07/06 10:46:06;;;;;;;7.85;4.60;;;;;;;41.10;31.73;99737.97;1539415;93;21159;-73
2022/07/06 10:48:39;;;;;;;7.75;5.00;;;;;;;41.16;31.83;99742.12;1538855;93;21126;-75
2022/07/06 10:51:06;;;;;;;11.83;5.78;;;;;;;41.20;31.05;99730.20;1559986;92;21024;-73
2022/07/06 10:53:35;;;;;;;7.85;4.90;;;;;;;41.18;28.76;99728.36;1559138;92;21111;-72
2022/07/06 10:56:09;;;;;;;17.17;6.00;;;;;;;40.74;28.02;99719.86;1618516;88;21540;-72
2022/07/06 10:58:48;;;;;;;12.03;8.33;;;;;;;40.35;29.61;99726.34;1633491;88;21455;-74
2022/07/06 11:01:15;;;;;;;9.13;5.30;;;;;;;40.14;29.88;99726.20;1633172;88;21090;-74
2022/07/06 11:04:02;;;;;;;11.35;6.03;;;;;;;39.57;28.81;99725.99;1633190;87;21516;-76
2022/07/06 11:06:36;;;;;;;11.57;6.22;;;;;;;38.93;29.65;99717.79;1633738;88;21075;-76
2022/07/06 11:09:08;;;;;;;8.40;5.45;;;;;;;38.74;31.91;99717.20;1633164;88;21305;-72
2022/07/06 11:11:40;;;;;;;6.58;5.03;;;;;;;38.77;31.76;99716.23;1635994;86;21034;-73
2022/07/06 11:14:11;;;;;;;6.03;4.50;;;;;;;38.78;31.26;99710.78;1670779;86;21013;-74
2022/07/06 11:16:53;;;;;;;6.30;4.87;;;;;;;38.81;30.67;99713.69;1670787;86;21050;-73
2022/07/06 11:19:24;;;;;;;8.28;4.75;;;;;;;38.88;30.79;99708.19;1670516;86;21053;-72
2022/07/06 11:21:59;;;;;;;7.42;4.90;;;;;;;39.01;32.43;99700.41;1670668;86;21088;-73
2022/07/06 11:24:29;;;;;;;8.23;5.03;;;;;;;39.26;32.21;99702.95;1670964;86;21010;-74
2022/07/06 11:26:58;;;;;;;6.58;4.60;;;;;;;39.41;31.29;99706.27;1670983;86;21507;-73
2022/07/06 11:29:27;;;;;;;10.75;5.35;;;;;;;38.41;29.84;99705.48;1670643;86;21029;-73
2022/07/06 11:31:56;;;;;;;6.08;4.62;;;;;;;38.41;29.84;99705.48;1670466;86;21049;-73
2022/07/06 11:34:27;;;;;;;9.75;4.85;;;;;;;38.01;31.29;99700.88;1669725;86;21100;-72
2022/07/06 11:37:00;;;;;;;8.38;4.85;;;;;;;37.75;31.34;99696.58;1644147;87;21099;-72